Terminal Aerodrome Forecast
Issued by NWS

Home | Current Version | Previous Version | Text Only | Print | Product List | Glossary On
Versions: 1 2 3 4 5 6 7 8 9 10 11 12 13 14 15 16 17
303
FTUS43 KEAX 181125
TAFSTJ
TAF
KSTJ 181125Z 1812/1912 16007KT P6SM SKC
     FM181400 18013G24KT P6SM FEW250
     FM181700 19022G37KT P6SM FEW250
     FM190300 18016KT P6SM BKN020
     FM190600 18013KT 6SM -DZ BKN008=

USA.gov is the U.S. government's official web portal to all federal, state and local government web resources and services.